Time;durP1;ratioP1;P1;durP2;ratioP2;P2;SDS_P1;SDS_P2;PMS_P1;PMS_P2;Temp;Humidity;BMP_temperature;BMP_pressure;BME280_temperature;BME280_humidity;BME280_pressure;Samples;Min_cycle;Max_cycle;Signal;HPM_P1;HPM_P2
2023/05/10 00:00:04;;;;;;;7.82;2.72;;;11.20;99.90;;;;;;4880829;29;20048;-80
2023/05/10 00:02:38;;;;;;;6.30;2.35;;;11.20;99.90;;;;;;4879623;29;20068;-79
2023/05/10 00:05:05;;;;;;;7.38;2.80;;;11.20;99.90;;;;;;4881251;29;20060;-79
2023/05/10 00:07:34;;;;;;;6.15;2.17;;;11.10;99.90;;;;;;4880245;29;20052;-80
2023/05/10 00:10:01;;;;;;;9.52;2.58;;;11.10;99.90;;;;;;4893922;29;20494;-79
2023/05/10 00:12:27;;;;;;;8.15;2.33;;;11.10;99.90;;;;;;4880722;29;20063;-80
2023/05/10 00:14:54;;;;;;;7.28;2.03;;;11.10;99.90;;;;;;4880607;29;20052;-79
2023/05/10 00:17:22;;;;;;;6.35;2.10;;;11.10;99.90;;;;;;4880278;29;20045;-79
2023/05/10 00:19:48;;;;;;;8.65;2.22;;;11.10;99.90;;;;;;4880326;29;20047;-79
2023/05/10 00:22:15;;;;;;;5.97;2.15;;;11.10;99.90;;;;;;4894541;29;20044;-79
2023/05/10 00:24:41;;;;;;;5.57;2.10;;;11.10;99.90;;;;;;4880981;29;20068;-80
2023/05/10 00:29:55;;;;;;;8.02;2.30;;;11.20;99.90;;;;;;4879315;29;20048;-80
2023/05/10 00:32:22;;;;;;;7.57;2.45;;;11.10;99.90;;;;;;4864628;29;20045;-80
2023/05/10 00:34:49;;;;;;;7.55;2.70;;;11.10;99.90;;;;;;4880839;29;20045;-79
2023/05/10 00:37:17;;;;;;;7.30;2.10;;;11.20;99.90;;;;;;4879989;29;20056;-79
2023/05/10 00:39:43;;;;;;;7.60;2.53;;;11.20;99.90;;;;;;4881315;29;20436;-79
2023/05/10 00:42:10;;;;;;;9.30;2.80;;;11.20;99.90;;;;;;4863513;29;20041;-80
2023/05/10 00:44:37;;;;;;;7.10;2.72;;;11.20;99.90;;;;;;4864625;29;20049;-80
2023/05/10 00:49:51;;;;;;;5.53;2.28;;;11.20;99.90;;;;;;4880042;29;20176;-80
2023/05/10 00:52:18;;;;;;;11.93;2.58;;;11.30;99.90;;;;;;4895300;29;20045;-80
2023/05/10 00:54:46;;;;;;;8.38;2.47;;;11.30;99.90;;;;;;4895410;29;20045;-79
2023/05/10 00:57:14;;;;;;;10.68;2.72;;;11.30;99.90;;;;;;4880028;29;20101;-80
2023/05/10 00:59:41;;;;;;;8.00;2.80;;;11.40;99.90;;;;;;4882105;29;20468;-80
2023/05/10 01:02:08;;;;;;;8.57;2.97;;;11.40;99.90;;;;;;4897968;29;20037;-80
2023/05/10 01:04:35;;;;;;;9.25;2.72;;;11.40;99.90;;;;;;4898850;29;20485;-80
2023/05/10 01:07:03;;;;;;;8.85;2.97;;;11.40;99.90;;;;;;4883253;29;20097;-80
2023/05/10 01:09:30;;;;;;;8.90;3.03;;;11.40;99.90;;;;;;4883564;29;20052;-80
2023/05/10 01:11:56;;;;;;;9.63;2.88;;;11.40;99.90;;;;;;4898541;29;20044;-80
2023/05/10 01:14:23;;;;;;;8.55;3.30;;;11.50;99.90;;;;;;4884330;29;20055;-80
2023/05/10 01:16:51;;;;;;;10.05;3.40;;;11.50;99.90;;;;;;4897808;29;20376;-80
2023/05/10 01:19:17;;;;;;;9.00;3.10;;;11.50;99.90;;;;;;4884018;29;20041;-80
2023/05/10 01:21:44;;;;;;;10.95;3.30;;;11.50;99.90;;;;;;4881739;29;20365;-80
2023/05/10 01:24:11;;;;;;;7.43;2.63;;;11.60;99.90;;;;;;4884105;29;20041;-80
2023/05/10 01:26:38;;;;;;;8.50;3.25;;;11.60;99.90;;;;;;4883068;29;20052;-80
2023/05/10 01:29:05;;;;;;;9.25;2.83;;;11.60;99.90;;;;;;4897623;29;20056;-80
2023/05/10 01:31:32;;;;;;;9.20;3.33;;;11.70;99.90;;;;;;4898339;29;20093;-80
2023/05/10 01:33:59;;;;;;;11.10;3.75;;;11.70;99.90;;;;;;4883911;29;20051;-80
2023/05/10 01:39:11;;;;;;;9.98;3.17;;;11.70;99.90;;;;;;4882667;29;20087;-80
2023/05/10 01:41:37;;;;;;;9.20;3.40;;;11.70;99.90;;;;;;4881523;29;20381;-80
2023/05/10 01:44:04;;;;;;;10.63;3.05;;;11.70;99.90;;;;;;4884228;29;20076;-80
2023/05/10 01:49:35;;;;;;;8.60;3.10;;;11.80;99.90;;;;;;4897216;29;20037;-80
2023/05/10 01:52:02;;;;;;;10.00;3.83;;;11.80;99.90;;;;;;4883161;29;20045;-80
2023/05/10 01:54:28;;;;;;;9.93;3.55;;;11.80;99.90;;;;;;4882391;29;20060;-80
2023/05/10 01:56:55;;;;;;;9.98;3.72;;;11.80;99.90;;;;;;4897342;29;20053;-80
2023/05/10 01:59:22;;;;;;;13.95;3.80;;;11.80;99.90;;;;;;4916870;29;20468;-80
2023/05/10 02:01:48;;;;;;;8.45;3.50;;;11.80;99.90;;;;;;4915821;29;20045;-80
2023/05/10 02:04:16;;;;;;;7.43;3.03;;;11.80;99.90;;;;;;4916672;29;20128;-80
2023/05/10 02:09:28;;;;;;;10.20;3.22;;;11.80;99.90;;;;;;4915258;29;20060;-80
2023/05/10 02:11:55;;;;;;;13.70;3.30;;;11.80;99.90;;;;;;4900395;29;20052;-80
2023/05/10 02:14:21;;;;;;;6.05;2.83;;;11.80;99.90;;;;;;4916610;29;20076;-80
2023/05/10 02:16:50;;;;;;;12.98;3.40;;;11.80;99.90;;;;;;4900036;29;20040;-80
2023/05/10 02:19:17;;;;;;;9.18;3.10;;;11.80;99.90;;;;;;4901955;29;20127;-80
2023/05/10 02:21:43;;;;;;;8.88;3.33;;;11.70;99.90;;;;;;4900426;29;20053;-80
2023/05/10 02:24:10;;;;;;;7.88;3.55;;;11.70;99.90;;;;;;4885044;29;20460;-80
2023/05/10 02:26:37;;;;;;;7.60;3.13;;;11.70;99.90;;;;;;4901501;29;20048;-81
2023/05/10 02:29:03;;;;;;;8.60;2.97;;;11.70;99.90;;;;;;4884323;29;20044;-80
2023/05/10 02:31:30;;;;;;;8.77;3.58;;;11.70;99.90;;;;;;4916058;29;20055;-80
2023/05/10 02:33:57;;;;;;;9.93;2.85;;;11.60;99.90;;;;;;4916106;29;20076;-80
2023/05/10 02:36:27;;;;;;;11.77;3.80;;;11.60;99.90;;;;;;4900489;29;20045;-80
2023/05/10 02:38:53;;;;;;;9.07;3.53;;;11.60;99.90;;;;;;4915962;29;20486;-79
2023/05/10 02:41:22;;;;;;;7.88;3.38;;;11.60;99.90;;;;;;4900802;29;20036;-79
2023/05/10 02:43:49;;;;;;;7.63;2.70;;;11.60;99.90;;;;;;4900354;29;20051;-80
2023/05/10 02:46:17;;;;;;;7.72;3.10;;;11.50;99.90;;;;;;4916243;29;20128;-80
2023/05/10 02:48:44;;;;;;;10.50;3.05;;;11.50;99.90;;;;;;4883856;29;20090;-80
2023/05/10 02:51:11;;;;;;;10.93;3.10;;;11.50;99.90;;;;;;4884438;29;20048;-79
2023/05/10 02:53:37;;;;;;;7.78;2.95;;;11.50;99.90;;;;;;4885785;29;20045;-80
2023/05/10 02:56:04;;;;;;;10.35;3.00;;;11.50;99.90;;;;;;4896146;29;20456;-79
2023/05/10 02:58:31;;;;;;;8.50;2.70;;;11.50;99.90;;;;;;4882375;29;20064;-80
2023/05/10 03:00:57;;;;;;;7.75;3.20;;;11.50;99.90;;;;;;4880784;29;20068;-80
2023/05/10 03:03:24;;;;;;;7.82;2.70;;;11.40;99.90;;;;;;4896220;29;20063;-80
2023/05/10 03:08:37;;;;;;;8.05;3.15;;;11.50;99.90;;;;;;4881195;29;20081;-80
2023/05/10 03:11:06;;;;;;;7.82;2.80;;;11.40;99.90;;;;;;4896390;29;20049;-80
2023/05/10 03:13:35;;;;;;;10.48;3.50;;;11.50;99.90;;;;;;4880915;29;20096;-79
2023/05/10 03:16:04;;;;;;;11.45;3.03;;;11.40;99.90;;;;;;4880115;29;20052;-79
2023/05/10 03:18:30;;;;;;;12.43;3.83;;;11.40;99.90;;;;;;4896426;29;20377;-80
2023/05/10 03:20:57;;;;;;;10.90;3.35;;;11.40;99.90;;;;;;4895914;29;20128;-80
2023/05/10 03:23:24;;;;;;;7.18;3.08;;;11.50;99.90;;;;;;4895522;29;20051;-80
2023/05/10 03:25:51;;;;;;;11.63;4.10;;;11.40;99.90;;;;;;4881998;29;20055;-80
2023/05/10 03:28:18;;;;;;;10.93;3.95;;;11.40;99.90;;;;;;4880509;29;20413;-80
2023/05/10 03:30:45;;;;;;;13.32;3.72;;;11.40;99.90;;;;;;4880599;29;20045;-80
2023/05/10 03:33:13;;;;;;;9.93;3.00;;;11.40;99.90;;;;;;4880665;29;20053;-80
2023/05/10 03:35:45;;;;;;;8.93;3.35;;;11.40;99.90;;;;;;4895406;29;20056;-80
2023/05/10 03:38:13;;;;;;;9.60;3.10;;;11.40;99.90;;;;;;4880615;29;20053;-80
2023/05/10 03:40:40;;;;;;;8.90;3.50;;;11.40;99.90;;;;;;4895881;29;20144;-79
2023/05/10 03:43:07;;;;;;;10.32;3.65;;;11.40;99.90;;;;;;4880190;29;20487;-80
2023/05/10 03:45:35;;;;;;;8.85;3.20;;;11.30;99.90;;;;;;4880411;29;20037;-80
2023/05/10 03:48:02;;;;;;;14.52;4.07;;;11.40;99.90;;;;;;4881616;29;20065;-79
2023/05/10 03:50:29;;;;;;;10.35;3.83;;;11.40;99.90;;;;;;4879496;29;20068;-80
2023/05/10 03:52:57;;;;;;;10.63;4.03;;;11.30;99.90;;;;;;4886225;29;20050;-79
2023/05/10 03:55:23;;;;;;;8.60;3.47;;;11.30;99.90;;;;;;4876497;29;20041;-80
2023/05/10 03:57:50;;;;;;;8.00;3.33;;;11.30;99.90;;;;;;4877179;29;20056;-79
2023/05/10 04:00:17;;;;;;;9.80;3.65;;;11.30;99.90;;;;;;4876787;29;20366;-79
2023/05/10 04:02:48;;;;;;;10.85;3.75;;;11.30;99.90;;;;;;4861007;29;20473;-80
2023/05/10 04:05:18;;;;;;;10.45;3.53;;;11.30;99.90;;;;;;4861665;29;20140;-80
2023/05/10 04:07:49;;;;;;;13.18;3.83;;;11.30;99.90;;;;;;4862681;29;20041;-80
2023/05/10 04:10:16;;;;;;;12.32;4.53;;;11.20;99.90;;;;;;4860825;29;20102;-79
2023/05/10 04:12:43;;;;;;;13.00;3.67;;;11.20;99.90;;;;;;4862683;29;20076;-80
2023/05/10 04:15:10;;;;;;;11.90;4.22;;;11.20;99.90;;;;;;4861931;29;20057;-79
2023/05/10 04:17:38;;;;;;;9.07;3.97;;;11.20;99.90;;;;;;4862667;29;20057;-80
2023/05/10 04:20:04;;;;;;;12.63;3.95;;;11.20;99.90;;;;;;4877038;29;20045;-80
2023/05/10 04:22:31;;;;;;;10.55;4.15;;;11.20;99.90;;;;;;4861606;29;20056;-80
2023/05/10 04:24:58;;;;;;;12.23;3.70;;;11.10;99.90;;;;;;4862698;29;20377;-80
2023/05/10 04:30:10;;;;;;;12.40;3.97;;;11.10;99.90;;;;;;4860650;29;20412;-79
2023/05/10 04:32:37;;;;;;;11.93;3.90;;;11.00;99.90;;;;;;4876924;29;20049;-80
2023/05/10 04:35:04;;;;;;;10.07;3.95;;;11.00;99.90;;;;;;4865238;29;20077;-79
2023/05/10 04:40:19;;;;;;;13.15;3.78;;;10.90;99.90;;;;;;4865948;29;20077;-80
2023/05/10 04:42:46;;;;;;;8.85;3.65;;;10.90;99.90;;;;;;4879935;29;20053;-80
2023/05/10 04:45:14;;;;;;;12.73;3.50;;;10.90;99.90;;;;;;4865995;29;20059;-79
2023/05/10 04:47:41;;;;;;;10.68;3.58;;;10.80;99.90;;;;;;4880685;29;20049;-80
2023/05/10 04:50:08;;;;;;;15.07;4.45;;;10.80;99.90;;;;;;4879727;29;20041;-80
2023/05/10 04:52:34;;;;;;;11.27;3.85;;;10.80;99.90;;;;;;4880842;29;20121;-79
2023/05/10 04:55:01;;;;;;;13.52;4.28;;;10.80;99.90;;;;;;4880240;29;20500;-80
2023/05/10 04:57:28;;;;;;;13.70;4.18;;;10.70;99.90;;;;;;4866013;29;20046;-81
2023/05/10 04:59:55;;;;;;;13.32;4.55;;;10.80;99.90;;;;;;4867096;29;20065;-80
2023/05/10 05:02:23;;;;;;;13.88;4.38;;;10.70;99.90;;;;;;4864898;29;20065;-80
2023/05/10 05:04:50;;;;;;;13.95;5.20;;;10.70;99.90;;;;;;4866611;29;20376;-79
2023/05/10 05:07:17;;;;;;;14.95;4.55;;;10.70;99.90;;;;;;4865741;29;20050;-80
2023/05/10 05:09:44;;;;;;;15.05;4.28;;;10.70;99.90;;;;;;4864508;29;20053;-80
2023/05/10 05:12:13;;;;;;;13.48;4.63;;;10.80;99.90;;;;;;4865763;29;20049;-79
2023/05/10 05:14:41;;;;;;;11.52;4.75;;;10.80;99.90;;;;;;4865664;29;20073;-80
2023/05/10 05:17:09;;;;;;;13.90;4.90;;;10.70;99.90;;;;;;4864658;29;20065;-80
2023/05/10 05:19:36;;;;;;;13.60;4.72;;;10.70;99.90;;;;;;4864210;29;20067;-80
2023/05/10 05:22:03;;;;;;;14.93;5.47;;;10.70;99.90;;;;;;4864418;29;20057;-80
2023/05/10 05:24:29;;;;;;;15.27;5.05;;;10.80;99.90;;;;;;4865299;29;20128;-79
2023/05/10 05:29:42;;;;;;;21.98;5.35;;;10.80;99.90;;;;;;4864268;29;20060;-80
2023/05/10 05:32:10;;;;;;;18.27;4.80;;;10.80;99.90;;;;;;4879699;29;20072;-79
2023/05/10 05:34:36;;;;;;;13.05;4.93;;;10.90;99.90;;;;;;4879537;29;20041;-80
2023/05/10 05:37:03;;;;;;;15.90;5.40;;;10.90;99.90;;;;;;4864204;29;20061;-80
2023/05/10 05:39:30;;;;;;;16.80;5.80;;;10.90;99.90;;;;;;4879653;29;20045;-80
2023/05/10 05:41:56;;;;;;;18.02;6.00;;;11.00;99.90;;;;;;4864303;29;20045;-79
2023/05/10 05:44:23;;;;;;;15.45;5.25;;;11.10;99.90;;;;;;4865345;29;20358;-79
2023/05/10 05:46:51;;;;;;;15.75;5.97;;;11.20;99.90;;;;;;4864951;29;20046;-80
2023/05/10 05:49:17;;;;;;;18.40;5.65;;;11.20;99.90;;;;;;4864164;29;20060;-80
2023/05/10 05:51:44;;;;;;;14.63;5.40;;;11.20;99.90;;;;;;4865550;29;20049;-79
2023/05/10 05:54:11;;;;;;;14.93;6.03;;;11.20;99.90;;;;;;4898234;29;20063;-80
2023/05/10 05:59:26;;;;;;;17.27;6.50;;;11.20;99.90;;;;;;4881959;29;20057;-80
2023/05/10 06:01:53;;;;;;;16.42;6.38;;;11.20;99.90;;;;;;4882576;29;20049;-79
2023/05/10 06:04:20;;;;;;;18.20;6.00;;;11.20;99.90;;;;;;4883504;29;20167;-80
2023/05/10 06:06:47;;;;;;;15.45;6.25;;;11.20;99.90;;;;;;4897866;29;20437;-79
2023/05/10 06:09:14;;;;;;;21.15;6.00;;;11.20;99.90;;;;;;4882519;29;20072;-80
2023/05/10 06:11:41;;;;;;;17.45;6.68;;;11.20;99.90;;;;;;4882947;29;20128;-79
2023/05/10 06:14:08;;;;;;;13.52;6.00;;;11.30;99.90;;;;;;4883544;29;20057;-80
2023/05/10 06:16:34;;;;;;;14.20;5.88;;;11.40;99.90;;;;;;4881302;29;20380;-79
2023/05/10 06:19:02;;;;;;;13.90;5.43;;;11.40;99.90;;;;;;4883153;29;20128;-79
2023/05/10 06:21:28;;;;;;;12.63;5.15;;;11.50;99.90;;;;;;4882233;29;20041;-79
2023/05/10 06:23:55;;;;;;;16.40;5.53;;;11.50;99.90;;;;;;4881897;29;20045;-80
2023/05/10 06:26:22;;;;;;;16.58;5.70;;;11.60;99.90;;;;;;4882678;29;20049;-79
2023/05/10 06:28:48;;;;;;;14.52;5.25;;;11.60;99.90;;;;;;4881632;29;20048;-80
2023/05/10 06:31:15;;;;;;;16.30;5.43;;;11.60;99.90;;;;;;4881259;29;20083;-80
2023/05/10 06:33:42;;;;;;;15.45;4.80;;;11.60;99.90;;;;;;4882558;29;20052;-80
2023/05/10 06:36:09;;;;;;;14.85;5.47;;;11.60;99.90;;;;;;4883044;29;20037;-79
2023/05/10 06:38:35;;;;;;;14.02;5.55;;;11.60;99.90;;;;;;4871638;29;20053;-80
2023/05/10 06:41:02;;;;;;;14.65;4.90;;;11.60;99.90;;;;;;4881926;29;20045;-85
2023/05/10 06:43:29;;;;;;;14.00;5.63;;;11.80;99.90;;;;;;4872139;29;20049;-80
2023/05/10 06:45:57;;;;;;;18.98;5.13;;;11.80;99.90;;;;;;4865475;29;20048;-81
2023/05/10 06:48:24;;;;;;;17.17;4.97;;;12.00;99.90;;;;;;4881293;29;20041;-81
2023/05/10 06:50:50;;;;;;;16.45;4.65;;;12.00;99.90;;;;;;4881659;29;20041;-80
2023/05/10 06:53:17;;;;;;;10.68;4.82;;;12.10;99.90;;;;;;4880616;29;20049;-80
2023/05/10 06:55:44;;;;;;;14.40;4.85;;;12.10;99.90;;;;;;4880383;29;20053;-81
2023/05/10 06:58:10;;;;;;;17.55;5.65;;;12.10;99.90;;;;;;4896894;29;20049;-81
2023/05/10 07:00:43;;;;;;;13.13;4.88;;;12.20;99.90;;;;;;4881592;29;20373;-81
2023/05/10 07:03:10;;;;;;;13.55;5.43;;;12.20;99.90;;;;;;4895603;29;20056;-81
2023/05/10 07:05:38;;;;;;;17.48;5.10;;;12.40;99.90;;;;;;4881941;29;20071;-81
2023/05/10 07:08:05;;;;;;;17.35;5.60;;;12.50;99.90;;;;;;4881984;29;20045;-81
2023/05/10 07:10:31;;;;;;;18.42;5.45;;;12.80;99.90;;;;;;4880712;29;20371;-86
2023/05/10 07:12:58;;;;;;;15.10;5.97;;;12.90;99.90;;;;;;4896412;29;20061;-81
2023/05/10 07:15:25;;;;;;;11.90;5.15;;;13.10;99.90;;;;;;4880822;29;20100;-81
2023/05/10 07:17:52;;;;;;;15.45;5.22;;;13.20;99.90;;;;;;4880679;29;20061;-81
2023/05/10 07:20:18;;;;;;;14.57;5.20;;;13.10;99.90;;;;;;4896118;29;20076;-81
2023/05/10 07:22:45;;;;;;;17.88;5.10;;;13.00;99.90;;;;;;4880531;29;20045;-81
2023/05/10 07:25:12;;;;;;;15.35;4.93;;;12.90;99.90;;;;;;4896275;29;20051;-81
2023/05/10 07:27:38;;;;;;;14.55;4.20;;;12.90;99.90;;;;;;4896255;29;20476;-81
2023/05/10 07:30:05;;;;;;;11.27;4.88;;;13.00;99.90;;;;;;4879626;29;20053;-81
2023/05/10 07:32:32;;;;;;;18.60;5.13;;;13.30;99.90;;;;;;4881321;29;20071;-82
2023/05/10 07:34:58;;;;;;;14.55;5.00;;;13.50;99.90;;;;;;4880362;29;20438;-81
2023/05/10 07:37:26;;;;;;;13.68;4.70;;;13.70;99.90;;;;;;4881567;29;20060;-81
2023/05/10 07:39:52;;;;;;;12.23;3.95;;;13.70;99.90;;;;;;4879603;29;20072;-82
2023/05/10 07:42:19;;;;;;;10.05;4.20;;;13.80;99.90;;;;;;4879983;29;20357;-81
2023/05/10 07:44:47;;;;;;;12.88;4.38;;;14.00;99.90;;;;;;4878524;29;20487;-85
2023/05/10 07:47:13;;;;;;;17.05;4.28;;;14.10;99.90;;;;;;4863440;29;20045;-86
2023/05/10 07:49:40;;;;;;;15.27;5.05;;;14.10;99.90;;;;;;4880556;29;20045;-86
2023/05/10 07:52:07;;;;;;;12.60;3.78;;;14.10;99.90;;;;;;4890607;29;20392;-82
2023/05/10 07:54:33;;;;;;;12.18;4.38;;;14.00;99.90;;;;;;4880970;29;20045;-83
2023/05/10 07:57:00;;;;;;;14.15;3.95;;;14.30;99.90;;;;;;4870426;29;20052;-83
2023/05/10 07:59:27;;;;;;;12.05;3.45;;;14.50;99.90;;;;;;4879628;29;20152;-83
2023/05/10 08:01:54;;;;;;;8.85;3.00;;;14.60;99.90;;;;;;4879084;29;20048;-83
2023/05/10 08:04:21;;;;;;;11.88;3.50;;;14.50;99.90;;;;;;4879666;29;20084;-82
2023/05/10 08:06:48;;;;;;;14.18;3.17;;;14.70;99.90;;;;;;4873868;29;20052;-82
2023/05/10 08:09:15;;;;;;;14.07;3.50;;;14.90;99.90;;;;;;4879892;29;20072;-83
2023/05/10 08:11:42;;;;;;;14.23;3.80;;;15.10;99.90;;;;;;4879659;29;20060;-82
2023/05/10 08:14:08;;;;;;;9.60;3.85;;;15.10;99.90;;;;;;4880420;29;20041;-82
2023/05/10 08:16:37;;;;;;;11.93;3.30;;;15.10;99.90;;;;;;4878768;29;20055;-81
2023/05/10 08:19:04;;;;;;;11.57;3.58;;;15.10;99.90;;;;;;4895181;29;20362;-82
2023/05/10 08:21:31;;;;;;;13.13;3.45;;;15.30;99.90;;;;;;4895213;29;20081;-85
2023/05/10 08:23:58;;;;;;;8.98;3.35;;;15.30;99.90;;;;;;4842842;29;20137;-90
2023/05/10 08:26:25;;;;;;;14.63;3.17;;;15.50;99.90;;;;;;4862652;29;20047;-86
2023/05/10 08:28:52;;;;;;;14.95;4.18;;;15.70;99.90;;;;;;4876310;29;20042;-87
2023/05/10 08:31:19;;;;;;;13.50;3.60;;;15.80;99.90;;;;;;4871979;29;20447;-85
2023/05/10 08:33:45;;;;;;;13.63;3.20;;;15.80;99.90;;;;;;4879463;29;20069;-86
2023/05/10 08:36:14;;;;;;;10.95;3.13;;;15.80;99.90;;;;;;4877999;29;20136;-81
2023/05/10 08:38:40;;;;;;;9.48;2.92;;;15.80;99.90;;;;;;4877910;29;20048;-84
2023/05/10 08:41:07;;;;;;;16.27;3.65;;;15.80;99.90;;;;;;4878461;29;20413;-82
2023/05/10 08:43:34;;;;;;;13.40;3.58;;;15.70;99.90;;;;;;4879232;29;20140;-82
2023/05/10 08:46:02;;;;;;;11.93;3.70;;;15.80;99.90;;;;;;4880456;29;20055;-79
2023/05/10 08:48:29;;;;;;;13.32;3.22;;;16.10;99.90;;;;;;4878490;29;20479;-79
2023/05/10 08:50:56;;;;;;;14.00;3.20;;;16.30;99.90;;;;;;4894675;29;20425;-79
2023/05/10 08:53:22;;;;;;;15.18;3.55;;;16.50;99.90;;;;;;4894949;29;20049;-79
2023/05/10 08:55:49;;;;;;;11.10;3.25;;;16.40;99.90;;;;;;4893961;29;20048;-79
2023/05/10 08:58:16;;;;;;;9.43;3.10;;;16.40;99.90;;;;;;4880400;29;20041;-79
2023/05/10 09:00:42;;;;;;;11.80;3.22;;;16.60;99.90;;;;;;4894360;29;20088;-79
2023/05/10 09:03:09;;;;;;;13.82;3.70;;;16.60;99.90;;;;;;4878360;29;20139;-80
2023/05/10 09:05:36;;;;;;;16.30;3.60;;;16.50;99.90;;;;;;4880427;29;20074;-80
2023/05/10 09:08:05;;;;;;;18.45;3.30;;;16.50;99.90;;;;;;4886674;29;20041;-80
2023/05/10 09:10:32;;;;;;;12.55;3.30;;;16.70;99.90;;;;;;4878933;29;20080;-80
2023/05/10 09:12:58;;;;;;;11.45;3.30;;;17.00;99.90;;;;;;4880281;29;20345;-80
2023/05/10 09:15:25;;;;;;;12.48;3.13;;;16.90;99.90;;;;;;4894013;29;20060;-81
2023/05/10 09:17:52;;;;;;;12.43;3.72;;;17.00;99.90;;;;;;4895020;29;20397;-80
2023/05/10 09:20:18;;;;;;;12.63;3.58;;;17.10;99.90;;;;;;4881704;29;20143;-80
2023/05/10 09:22:45;;;;;;;9.93;3.13;;;17.10;99.90;;;;;;4882700;29;20400;-80
2023/05/10 09:25:12;;;;;;;11.15;3.38;;;17.20;99.90;;;;;;4883570;29;20048;-80
2023/05/10 09:27:38;;;;;;;15.25;4.22;;;17.40;99.90;;;;;;4883672;29;20052;-80
2023/05/10 09:30:06;;;;;;;14.25;3.72;;;17.50;99.90;;;;;;4896836;29;20396;-80
2023/05/10 09:32:32;;;;;;;9.90;3.53;;;17.40;99.90;;;;;;4883554;29;20045;-80
2023/05/10 09:34:59;;;;;;;10.13;3.33;;;17.40;99.90;;;;;;4897306;29;20057;-80
2023/05/10 09:37:26;;;;;;;13.55;3.38;;;17.50;99.90;;;;;;4883601;29;20045;-80
2023/05/10 09:39:52;;;;;;;10.75;3.58;;;17.40;99.90;;;;;;4897952;29;20053;-80
2023/05/10 09:42:19;;;;;;;13.77;3.88;;;17.50;99.90;;;;;;4881567;29;20483;-81
2023/05/10 09:44:46;;;;;;;9.88;3.78;;;17.70;99.90;;;;;;4898053;29;20457;-81
2023/05/10 09:47:13;;;;;;;12.38;3.60;;;17.80;99.90;;;;;;4898059;29;20498;-80
2023/05/10 09:49:40;;;;;;;14.02;3.30;;;17.90;99.90;;;;;;4882029;29;20041;-81
2023/05/10 09:52:07;;;;;;;10.85;3.17;;;17.80;99.90;;;;;;4883136;29;20048;-81
2023/05/10 09:54:33;;;;;;;8.07;2.95;;;18.00;99.90;;;;;;4897881;29;20049;-80
2023/05/10 09:57:00;;;;;;;9.90;3.22;;;18.10;99.90;;;;;;4881159;29;20477;-81
2023/05/10 09:59:27;;;;;;;12.70;3.40;;;18.10;99.90;;;;;;4897634;29;20376;-81
2023/05/10 10:01:54;;;;;;;8.88;3.38;;;18.10;99.90;;;;;;4896690;29;20817;-81
2023/05/10 10:04:21;;;;;;;9.43;2.92;;;18.40;99.90;;;;;;4882011;29;20045;-81
2023/05/10 10:06:48;;;;;;;11.00;3.20;;;18.50;99.90;;;;;;4897499;29;20045;-81
2023/05/10 10:09:14;;;;;;;12.52;3.08;;;18.90;99.90;;;;;;4880458;29;20060;-81
2023/05/10 10:11:41;;;;;;;10.75;2.80;;;19.00;99.90;;;;;;4897419;29;20116;-81
2023/05/10 10:14:07;;;;;;;9.43;3.00;;;19.10;99.90;;;;;;4898030;29;20053;-81
2023/05/10 10:16:34;;;;;;;11.95;3.10;;;19.40;99.90;;;;;;4880856;29;20072;-81
2023/05/10 10:19:01;;;;;;;10.90;3.40;;;19.70;99.90;;;;;;4897189;29;20053;-81
2023/05/10 10:21:28;;;;;;;11.00;3.90;;;19.50;99.90;;;;;;4897444;29;20044;-81
2023/05/10 10:23:55;;;;;;;9.18;3.10;;;19.60;99.90;;;;;;4881774;29;20425;-81
2023/05/10 10:26:22;;;;;;;11.60;3.60;;;19.90;99.90;;;;;;4897315;29;20557;-81
2023/05/10 10:28:49;;;;;;;11.27;3.80;;;19.80;99.90;;;;;;4896393;29;20380;-81
2023/05/10 10:31:16;;;;;;;9.60;3.22;;;20.00;99.90;;;;;;4881750;29;20041;-81
2023/05/10 10:33:42;;;;;;;11.93;3.55;;;19.80;99.90;;;;;;4882579;29;20057;-81
2023/05/10 10:36:11;;;;;;;13.45;3.30;;;20.30;99.90;;;;;;4881735;29;20471;-81
2023/05/10 10:38:38;;;;;;;10.63;3.20;;;20.50;99.90;;;;;;4882539;29;20049;-81
2023/05/10 10:41:05;;;;;;;9.73;3.40;;;20.70;99.90;;;;;;4881946;29;20136;-82
2023/05/10 10:43:31;;;;;;;8.75;3.20;;;21.10;99.90;;;;;;4881269;29;20460;-81
2023/05/10 10:45:58;;;;;;;13.55;3.70;;;20.70;99.90;;;;;;4896935;29;20045;-81
2023/05/10 10:48:25;;;;;;;8.68;2.95;;;20.50;99.90;;;;;;4896217;29;20052;-81
2023/05/10 10:50:51;;;;;;;9.18;3.10;;;19.90;99.90;;;;;;4896501;29;20037;-81
2023/05/10 10:53:18;;;;;;;7.88;3.03;;;20.30;99.90;;;;;;4897007;29;20045;-81
2023/05/10 10:55:45;;;;;;;10.25;3.13;;;21.00;99.90;;;;;;4880941;29;20052;-81
2023/05/10 10:58:12;;;;;;;9.90;3.17;;;21.00;99.90;;;;;;4882324;29;20076;-81
2023/05/10 11:00:40;;;;;;;11.13;3.58;;;21.20;99.90;;;;;;4880264;29;20053;-81
2023/05/10 11:03:07;;;;;;;10.05;3.20;;;21.40;99.90;;;;;;4880014;29;20049;-81
2023/05/10 11:05:35;;;;;;;9.82;3.50;;;21.20;99.90;;;;;;4881006;29;20041;-82
2023/05/10 11:08:01;;;;;;;10.30;3.50;;;21.50;99.90;;;;;;4896572;29;20049;-82
2023/05/10 11:10:28;;;;;;;12.10;3.70;;;21.70;99.90;;;;;;4879669;29;20053;-82
2023/05/10 11:12:55;;;;;;;10.20;4.20;;;21.90;99.90;;;;;;4881852;29;20045;-82
2023/05/10 11:15:22;;;;;;;8.80;3.38;;;21.40;99.90;;;;;;4895501;29;20045;-81
2023/05/10 11:17:51;;;;;;;9.77;3.40;;;21.10;99.90;;;;;;4881713;29;20049;-81
2023/05/10 11:20:22;;;;;;;8.32;3.35;;;20.90;99.90;;;;;;4881782;29;20080;-82
2023/05/10 11:22:50;;;;;;;8.68;2.85;;;21.00;99.90;;;;;;4879241;29;20045;-81
2023/05/10 11:25:17;;;;;;;9.93;3.10;;;21.90;99.90;;;;;;4881996;29;20077;-81
2023/05/10 11:27:45;;;;;;;10.70;2.80;;;22.50;99.90;;;;;;4875937;29;20045;-81
2023/05/10 11:30:11;;;;;;;11.98;3.40;;;22.40;99.90;;;;;;4881028;29;20063;-81
2023/05/10 11:32:38;;;;;;;7.93;3.03;;;22.90;99.90;;;;;;4866721;29;20477;-82
2023/05/10 11:35:05;;;;;;;10.98;2.65;;;22.80;99.90;;;;;;4882978;29;20045;-82
2023/05/10 11:37:34;;;;;;;9.18;2.97;;;22.90;99.90;;;;;;4866053;29;20059;-81
2023/05/10 11:40:00;;;;;;;6.18;2.40;;;23.30;98.40;;;;;;4896599;29;20460;-82
2023/05/10 11:42:27;;;;;;;9.30;3.20;;;23.60;99.90;;;;;;4874957;29;20040;-81
2023/05/10 11:44:54;;;;;;;15.68;3.35;;;23.70;98.00;;;;;;4883101;29;20045;-81
2023/05/10 11:47:21;;;;;;;6.72;2.55;;;23.00;98.40;;;;;;4884776;29;20041;-84
2023/05/10 11:49:47;;;;;;;6.40;2.60;;;23.10;97.20;;;;;;4895417;29;20037;-82
2023/05/10 11:52:14;;;;;;;6.80;2.17;;;23.30;93.40;;;;;;4879854;29;20151;-85
2023/05/10 11:54:41;;;;;;;9.38;2.70;;;23.20;95.40;;;;;;4862877;29;20057;-83
2023/05/10 11:57:08;;;;;;;6.40;1.95;;;23.10;92.90;;;;;;4861166;29;20064;-81
2023/05/10 11:59:35;;;;;;;5.25;1.80;;;23.50;91.80;;;;;;4892384;29;20045;-81
2023/05/10 12:02:03;;;;;;;5.78;2.10;;;23.30;90.70;;;;;;4873189;29;20412;-81
2023/05/10 12:04:30;;;;;;;6.53;1.90;;;23.70;90.40;;;;;;4880953;29;20055;-81
2023/05/10 12:06:58;;;;;;;6.50;2.05;;;24.00;90.30;;;;;;4881279;29;20041;-85
2023/05/10 12:09:24;;;;;;;7.80;2.15;;;24.70;88.20;;;;;;4879195;29;20045;-81
2023/05/10 12:12:08;;;;;;;6.68;2.05;;;24.40;81.00;;;;;;4875811;29;20377;-81
2023/05/10 12:14:35;;;;;;;8.27;2.58;;;24.50;81.20;;;;;;4895568;29;20049;-81
2023/05/10 12:17:04;;;;;;;8.55;2.55;;;24.20;84.30;;;;;;4860675;29;20049;-82
2023/05/10 12:19:31;;;;;;;5.05;1.60;;;23.40;83.90;;;;;;4876655;29;20101;-81
2023/05/10 12:21:57;;;;;;;7.28;2.20;;;23.10;84.90;;;;;;4860625;29;20061;-81
2023/05/10 12:24:25;;;;;;;8.02;1.80;;;23.00;85.00;;;;;;4862258;29;20050;-80
2023/05/10 12:26:53;;;;;;;10.88;2.10;;;22.40;86.50;;;;;;4862194;29;20445;-81
2023/05/10 12:29:19;;;;;;;7.07;2.25;;;22.10;91.10;;;;;;4873107;29;20041;-81
2023/05/10 12:31:46;;;;;;;8.20;2.03;;;22.00;90.80;;;;;;4880823;29;20045;-81
2023/05/10 12:34:13;;;;;;;5.18;1.88;;;21.50;91.10;;;;;;4895343;29;20365;-79
2023/05/10 12:36:41;;;;;;;8.90;2.70;;;21.20;91.90;;;;;;4879908;29;20049;-81
2023/05/10 12:39:07;;;;;;;10.90;2.40;;;20.90;93.40;;;;;;4880625;29;20045;-80
2023/05/10 12:41:34;;;;;;;8.05;1.92;;;21.20;94.00;;;;;;4894889;29;20048;-85
2023/05/10 12:44:01;;;;;;;6.53;2.30;;;21.30;93.10;;;;;;4879185;29;20045;-80
2023/05/10 12:48:58;;;;;;;7.13;2.50;;;21.10;93.60;;;;;;4872319;29;20079;-82
2023/05/10 12:51:35;;;;;;;6.55;1.90;;;21.10;93.50;;;;;;4880620;29;20074;-81
2023/05/10 12:54:01;;;;;;;8.65;2.20;;;21.00;92.60;;;;;;4880241;29;20056;-81
2023/05/10 12:56:30;;;;;;;5.90;2.05;;;20.80;93.80;;;;;;4882151;29;20045;-81
2023/05/10 12:58:57;;;;;;;9.52;2.13;;;20.70;94.40;;;;;;4883951;29;20060;-80
2023/05/10 13:01:24;;;;;;;6.53;2.08;;;20.50;96.10;;;;;;4883027;29;20057;-80
2023/05/10 13:03:50;;;;;;;8.95;2.00;;;20.10;95.10;;;;;;4882647;29;20117;-79
2023/05/10 13:06:17;;;;;;;7.50;2.10;;;19.90;95.70;;;;;;4884020;29;20041;-79
2023/05/10 13:08:44;;;;;;;6.18;2.00;;;19.60;97.40;;;;;;4881662;29;20052;-79